Terminal Aerodrome Forecast
Issued by NWS Brownsville, TX

Home | Current Version | Previous Version | Text Only | Print | Product List | Glossary On
Versions: 1 2 3 4 5 6 7 8 9 10 11 12 13 14
997
FTUS44 KBRO 231741
TAFMFE
TAF
KMFE 231741Z 2318/2418 10005KT P6SM SCT040
     FM232000 10012KT P6SM FEW030
     FM240400 10005KT P6SM FEW020
     FM240600 VRB02KT P6SM FEW020
     FM241400 02008KT P6SM FEW040=

USA.gov is the U.S. government's official web portal to all federal, state and local government web resources and services.